Terminal Aerodrome Forecast
Issued by NWS

Home | Current Version | Previous Version | Text Only | Print | Product List | Glossary Off
Versions: 1 2 3 4 5 6 7 8 9 10 11 12 13 14 15 16 17 18

810
FTUS43 KICT 052324
TAFCNU
TAF
KCNU 052324Z 0600/0624 16007KT P6SM SCT250
     FM060300 15004KT P6SM SCT035
     FM060500 00000KT P6SM BKN030
     FM060900 34012KT P6SM SCT015 BKN025
     FM061100 35013G21KT P6SM SCT035=

USA.gov is the U.S. government's official web portal to all federal, state and local government web resources and services.